Time;durP1;ratioP1;P1;durP2;ratioP2;P2;SDS_P1;SDS_P2;PMS_P1;PMS_P2;Temp;Humidity;BMP_temperature;BMP_pressure;BME280_temperature;BME280_humidity;BME280_pressure;Samples;Min_cycle;Max_cycle;Signal;HPM_P1;HPM_P2
2022/04/16 00:00:11;;;;;;;3.17;1.87;;;8.80;96.30;;;;;;5004399;28;20198;-67
2022/04/16 00:02:37;;;;;;;2.37;1.67;;;8.70;96.40;;;;;;5006210;28;21222;-68
2022/04/16 00:05:04;;;;;;;10.03;1.60;;;8.70;96.70;;;;;;5005630;28;21008;-66
2022/04/16 00:07:29;;;;;;;6.10;1.67;;;8.70;96.60;;;;;;5015642;28;20420;-68
2022/04/16 00:09:55;;;;;;;3.40;2.10;;;8.60;96.60;;;;;;5010108;28;20814;-68
2022/04/16 00:12:20;;;;;;;3.50;2.13;;;8.50;97.00;;;;;;5010916;28;20187;-68
2022/04/16 00:14:46;;;;;;;3.73;1.47;;;8.50;96.90;;;;;;5005281;28;20214;-67
2022/04/16 00:17:13;;;;;;;7.27;1.87;;;8.50;96.90;;;;;;5005857;28;20741;-64
2022/04/16 00:19:40;;;;;;;2.20;1.60;;;8.40;97.10;;;;;;5004786;28;20284;-66
2022/04/16 00:22:12;;;;;;;2.20;1.40;;;8.30;97.30;;;;;;5005741;28;20598;-65
2022/04/16 00:24:44;;;;;;;7.30;1.77;;;8.30;97.30;;;;;;4998469;28;20410;-64
2022/04/16 00:27:10;;;;;;;4.57;2.13;;;8.20;97.60;;;;;;5004495;28;20464;-64
2022/04/16 00:29:39;;;;;;;2.93;1.57;;;8.20;98.10;;;;;;4998786;28;20434;-64
2022/04/16 00:32:06;;;;;;;3.53;1.87;;;8.10;97.80;;;;;;5005526;28;20428;-65
2022/04/16 00:34:35;;;;;;;3.40;1.80;;;8.10;98.00;;;;;;5004879;28;20906;-64
2022/04/16 00:37:01;;;;;;;3.00;1.90;;;8.10;97.80;;;;;;5009637;28;21071;-64
2022/04/16 00:39:27;;;;;;;4.13;1.90;;;8.00;98.00;;;;;;5013639;28;20458;-64
2022/04/16 00:41:53;;;;;;;4.90;1.53;;;7.90;98.00;;;;;;5013319;28;20426;-65
2022/04/16 00:44:20;;;;;;;3.30;1.50;;;7.90;98.40;;;;;;5010274;28;20198;-66
2022/04/16 00:46:49;;;;;;;3.17;1.63;;;7.80;98.40;;;;;;5008625;28;20285;-66
2022/04/16 00:49:15;;;;;;;2.00;1.33;;;7.90;98.50;;;;;;5007736;28;20441;-65
2022/04/16 00:51:48;;;;;;;3.87;1.70;;;7.90;98.30;;;;;;5008610;28;20437;-65
2022/04/16 00:54:15;;;;;;;9.23;1.90;;;7.90;98.30;;;;;;5008813;28;20187;-66
2022/04/16 00:56:40;;;;;;;2.50;1.17;;;7.80;98.40;;;;;;5010007;28;20531;-66
2022/04/16 00:59:06;;;;;;;3.07;1.50;;;7.80;98.40;;;;;;5013196;28;21291;-66
2022/04/16 01:01:32;;;;;;;3.47;1.63;;;7.70;98.40;;;;;;5010234;28;20191;-66
2022/04/16 01:03:59;;;;;;;2.70;1.73;;;7.70;98.40;;;;;;5008482;28;20249;-65
2022/04/16 01:06:36;;;;;;;3.80;2.00;;;7.60;98.50;;;;;;5008603;28;20461;-66
2022/04/16 01:09:02;;;;;;;2.87;1.63;;;7.50;98.60;;;;;;5007302;28;20523;-65
2022/04/16 01:11:27;;;;;;;2.50;1.20;;;7.40;98.60;;;;;;5008288;28;20421;-65
2022/04/16 01:13:53;;;;;;;3.80;2.13;;;7.30;98.50;;;;;;5008398;28;20425;-65
2022/04/16 01:16:19;;;;;;;2.90;1.60;;;7.20;98.50;;;;;;5008533;28;20207;-66
2022/04/16 01:18:46;;;;;;;4.03;1.20;;;7.20;99.00;;;;;;5010693;28;20230;-64
2022/04/16 01:21:12;;;;;;;4.70;1.97;;;7.20;99.10;;;;;;5008988;28;20942;-65
2022/04/16 01:23:39;;;;;;;2.80;1.83;;;7.20;99.10;;;;;;5007948;28;20441;-64
2022/04/16 01:26:04;;;;;;;3.27;1.43;;;7.20;99.10;;;;;;5007947;28;20564;-65
2022/04/16 01:28:30;;;;;;;2.20;1.30;;;7.20;99.10;;;;;;5008004;28;20536;-66
2022/04/16 01:30:55;;;;;;;4.00;1.80;;;7.20;99.00;;;;;;5011771;28;20289;-66
2022/04/16 01:33:22;;;;;;;4.00;1.87;;;7.20;99.20;;;;;;5015102;28;20183;-65
2022/04/16 01:35:53;;;;;;;4.20;1.87;;;7.20;99.40;;;;;;5012470;28;20269;-64
2022/04/16 01:38:19;;;;;;;2.40;1.27;;;7.10;99.40;;;;;;5020250;28;20437;-65
2022/04/16 01:40:45;;;;;;;3.23;1.70;;;7.10;99.40;;;;;;5010664;28;21120;-66
2022/04/16 01:43:11;;;;;;;2.90;1.60;;;7.00;99.20;;;;;;5018712;28;20429;-64
2022/04/16 01:45:36;;;;;;;3.07;1.80;;;7.00;99.50;;;;;;5013688;28;21417;-65
2022/04/16 01:48:02;;;;;;;3.50;1.37;;;6.90;99.80;;;;;;5013179;28;20249;-65
2022/04/16 01:50:29;;;;;;;2.87;1.63;;;6.90;99.70;;;;;;5011970;28;20186;-64
2022/04/16 01:52:55;;;;;;;3.60;1.77;;;6.90;99.80;;;;;;5009878;28;20282;-64
2022/04/16 01:55:21;;;;;;;3.93;1.50;;;6.90;99.60;;;;;;5020075;28;20823;-64
2022/04/16 01:57:46;;;;;;;3.53;1.90;;;6.80;99.90;;;;;;5015370;28;20191;-64
2022/04/16 02:00:14;;;;;;;2.63;1.50;;;6.80;99.70;;;;;;5018136;28;20193;-65
2022/04/16 02:02:41;;;;;;;4.27;2.27;;;6.70;99.90;;;;;;5007511;28;20785;-65
2022/04/16 02:05:08;;;;;;;3.17;1.50;;;6.60;99.90;;;;;;5016195;28;21028;-64
2022/04/16 02:07:34;;;;;;;3.10;1.67;;;6.60;99.90;;;;;;5011972;28;20471;-64
2022/04/16 02:10:00;;;;;;;2.87;1.50;;;6.70;99.90;;;;;;4994852;28;20430;-64
2022/04/16 02:12:26;;;;;;;3.57;1.53;;;6.60;99.90;;;;;;5011830;28;20563;-66
2022/04/16 02:14:52;;;;;;;4.00;1.63;;;6.60;99.90;;;;;;5012194;28;21175;-64
2022/04/16 02:17:18;;;;;;;3.50;1.40;;;6.50;99.90;;;;;;5010059;28;20198;-66
2022/04/16 02:19:43;;;;;;;2.33;1.20;;;6.50;99.90;;;;;;5006680;28;20195;-66
2022/04/16 02:22:10;;;;;;;3.57;1.30;;;6.50;99.90;;;;;;5006103;28;20191;-65
2022/04/16 02:24:36;;;;;;;2.20;1.30;;;6.60;99.90;;;;;;5013427;28;20206;-66
2022/04/16 02:27:02;;;;;;;3.20;1.17;;;6.80;99.90;;;;;;5008572;28;20488;-66
2022/04/16 02:29:28;;;;;;;2.63;0.97;;;6.90;99.90;;;;;;5010861;28;20446;-67
2022/04/16 02:31:54;;;;;;;2.90;1.77;;;7.00;99.90;;;;;;5007188;28;20235;-66
2022/04/16 02:34:20;;;;;;;3.57;2.10;;;7.10;99.90;;;;;;5006372;28;20274;-66
2022/04/16 02:36:46;;;;;;;4.00;1.40;;;7.20;99.80;;;;;;5012192;28;20807;-66
2022/04/16 02:39:12;;;;;;;3.07;1.60;;;7.30;99.70;;;;;;4990790;28;20507;-66
2022/04/16 02:41:38;;;;;;;2.50;1.40;;;7.30;99.30;;;;;;5005955;28;20290;-66
2022/04/16 02:44:04;;;;;;;4.63;1.67;;;7.30;99.20;;;;;;5005711;28;23052;-66
2022/04/16 02:49:14;;;;;;;3.00;1.10;;;7.20;99.10;;;;;;5009741;28;20302;-66
2022/04/16 02:51:39;;;;;;;3.23;1.40;;;7.10;99.30;;;;;;5011440;28;20512;-66
2022/04/16 02:54:05;;;;;;;3.63;1.63;;;7.10;99.40;;;;;;5005901;28;20552;-65
2022/04/16 02:56:32;;;;;;;3.00;1.57;;;7.00;99.30;;;;;;5005792;28;20218;-66
2022/04/16 02:58:58;;;;;;;2.30;1.33;;;7.00;99.40;;;;;;5004799;28;20305;-66
2022/04/16 03:01:23;;;;;;;3.27;1.80;;;7.00;99.40;;;;;;5004539;28;20969;-66
2022/04/16 03:03:49;;;;;;;2.50;1.40;;;6.90;99.40;;;;;;5005847;28;20277;-65
2022/04/16 03:06:15;;;;;;;3.40;1.40;;;6.80;99.50;;;;;;5006203;28;20227;-65
2022/04/16 03:08:40;;;;;;;2.87;1.47;;;6.80;99.50;;;;;;5004107;28;20936;-66
2022/04/16 03:11:06;;;;;;;7.43;2.20;;;6.80;99.80;;;;;;4994630;28;20218;-68
2022/04/16 03:13:35;;;;;;;2.80;1.50;;;6.80;99.80;;;;;;5012399;28;20191;-65
2022/04/16 03:18:46;;;;;;;2.77;1.57;;;6.70;99.90;;;;;;5005528;28;20500;-66
2022/04/16 03:21:12;;;;;;;2.00;1.03;;;6.70;99.80;;;;;;5005895;28;20446;-66
2022/04/16 03:23:38;;;;;;;4.97;1.60;;;6.60;99.80;;;;;;5005525;28;20195;-66
2022/04/16 03:26:03;;;;;;;2.13;1.10;;;6.60;99.90;;;;;;5007924;28;20536;-67
2022/04/16 03:28:29;;;;;;;3.17;1.53;;;6.60;99.90;;;;;;5011670;28;20991;-66
2022/04/16 03:30:55;;;;;;;5.23;1.33;;;6.50;99.90;;;;;;5007949;28;20215;-66
2022/04/16 03:33:21;;;;;;;3.90;1.67;;;6.50;99.90;;;;;;5015139;28;20209;-64
2022/04/16 03:35:47;;;;;;;2.80;1.37;;;6.40;99.90;;;;;;5005901;28;20327;-66
2022/04/16 03:38:13;;;;;;;2.53;1.63;;;6.40;99.90;;;;;;5005071;28;20533;-63
2022/04/16 03:40:40;;;;;;;3.57;1.47;;;6.30;99.90;;;;;;5005201;28;20298;-64
2022/04/16 03:43:06;;;;;;;2.63;1.37;;;6.20;99.90;;;;;;5009495;28;21189;-66
2022/04/16 03:45:35;;;;;;;2.83;1.67;;;6.20;99.90;;;;;;5003534;28;22303;-66
2022/04/16 03:48:03;;;;;;;4.43;1.80;;;6.20;99.90;;;;;;5013057;28;20266;-64
2022/04/16 03:50:30;;;;;;;3.63;1.53;;;6.20;99.90;;;;;;5010746;28;20425;-66
2022/04/16 03:52:56;;;;;;;2.80;1.70;;;6.10;99.90;;;;;;5012335;28;20519;-65
2022/04/16 04:00:53;;;;;;;3.27;1.70;;;5.90;99.90;;;;;;5009713;28;20445;-65
2022/04/16 04:03:20;;;;;;;2.43;1.33;;;5.90;99.90;;;;;;5007213;28;20910;-65
2022/04/16 04:05:48;;;;;;;4.17;1.73;;;5.90;99.90;;;;;;5009207;28;20207;-65
2022/04/16 04:08:14;;;;;;;4.63;1.77;;;5.90;99.90;;;;;;5005138;28;21051;-66
2022/04/16 04:10:40;;;;;;;3.87;1.47;;;5.90;99.90;;;;;;5005788;28;20437;-65
2022/04/16 04:13:05;;;;;;;4.57;1.80;;;5.90;99.90;;;;;;5009875;28;20578;-65
2022/04/16 04:15:31;;;;;;;2.70;1.47;;;6.00;99.90;;;;;;5013844;28;20536;-67
2022/04/16 04:18:00;;;;;;;2.83;1.20;;;6.00;99.90;;;;;;5014872;28;20213;-65
2022/04/16 04:20:28;;;;;;;4.50;1.73;;;6.00;99.90;;;;;;5014525;28;20210;-66
2022/04/16 04:22:53;;;;;;;4.23;2.23;;;6.10;99.90;;;;;;5011963;28;20437;-66
2022/04/16 04:25:19;;;;;;;3.83;1.80;;;6.10;99.90;;;;;;5012008;28;20449;-66
2022/04/16 04:27:45;;;;;;;4.03;2.33;;;6.00;99.90;;;;;;5011642;28;20567;-66
2022/04/16 04:30:11;;;;;;;3.20;1.60;;;6.10;99.90;;;;;;5011481;28;20458;-67
2022/04/16 04:32:37;;;;;;;4.60;1.23;;;6.00;99.90;;;;;;5011763;28;20913;-66
2022/04/16 04:35:04;;;;;;;3.50;1.60;;;6.00;99.90;;;;;;5012951;28;20697;-65
2022/04/16 04:37:29;;;;;;;4.67;1.90;;;6.10;99.90;;;;;;5011288;28;20191;-67
2022/04/16 04:39:55;;;;;;;2.23;1.00;;;6.10;99.90;;;;;;5011445;28;20429;-68
2022/04/16 04:42:34;;;;;;;5.20;1.80;;;6.10;99.90;;;;;;5020149;28;20269;-69
2022/04/16 04:45:16;;;;;;;3.10;1.60;;;6.10;99.90;;;;;;5021668;28;20284;-68
2022/04/16 04:47:42;;;;;;;4.23;1.77;;;6.10;99.90;;;;;;5011591;28;20429;-66
2022/04/16 04:50:09;;;;;;;3.27;1.67;;;6.10;99.90;;;;;;5011461;28;20479;-68
2022/04/16 04:52:39;;;;;;;2.50;1.57;;;6.20;99.90;;;;;;5011020;28;20519;-68
2022/04/16 04:55:09;;;;;;;2.80;1.70;;;6.30;99.90;;;;;;5011551;28;20437;-68
2022/04/16 04:57:34;;;;;;;5.70;2.30;;;6.40;99.90;;;;;;5008979;28;20433;-69
2022/04/16 05:00:00;;;;;;;5.67;2.10;;;6.40;99.90;;;;;;5011428;28;20787;-67
2022/04/16 05:02:26;;;;;;;4.33;2.33;;;6.50;99.90;;;;;;5010276;28;20195;-67
2022/04/16 05:04:51;;;;;;;5.03;1.90;;;6.50;99.90;;;;;;5008708;28;20215;-67
2022/04/16 05:07:17;;;;;;;2.80;1.33;;;6.50;99.90;;;;;;5016435;28;20300;-68
2022/04/16 05:09:42;;;;;;;4.27;1.83;;;6.50;99.90;;;;;;5012047;28;20187;-65
2022/04/16 05:12:09;;;;;;;4.50;2.03;;;6.50;99.90;;;;;;5010649;28;20202;-68
2022/04/16 05:14:35;;;;;;;4.30;2.00;;;6.50;99.90;;;;;;5010386;28;20241;-66
2022/04/16 05:17:00;;;;;;;4.67;2.03;;;6.50;99.90;;;;;;5009956;28;20434;-67
2022/04/16 05:19:26;;;;;;;4.13;2.03;;;6.60;99.90;;;;;;5010701;28;20178;-66
2022/04/16 05:21:52;;;;;;;5.33;2.23;;;6.60;99.90;;;;;;4991854;28;20191;-67
2022/04/16 05:24:17;;;;;;;3.17;1.70;;;6.60;99.90;;;;;;5008268;28;20187;-67
2022/04/16 05:26:43;;;;;;;4.60;1.93;;;6.70;99.90;;;;;;5006937;28;20215;-67
2022/04/16 05:29:09;;;;;;;4.33;2.07;;;6.70;99.90;;;;;;5005600;28;20268;-68
2022/04/16 05:31:34;;;;;;;4.13;2.10;;;6.90;99.90;;;;;;5007378;28;20828;-65
2022/04/16 05:34:19;;;;;;;4.07;2.33;;;7.00;99.90;;;;;;5017252;28;20190;-66
2022/04/16 05:36:47;;;;;;;5.20;1.83;;;7.20;99.90;;;;;;5005590;28;20873;-65
2022/04/16 05:39:12;;;;;;;4.03;2.00;;;7.30;99.90;;;;;;5002236;28;20432;-66
2022/04/16 05:41:38;;;;;;;2.80;1.67;;;7.40;99.90;;;;;;5006828;28;21032;-67
2022/04/16 05:44:07;;;;;;;2.87;1.63;;;7.60;99.90;;;;;;5011439;28;20212;-65
2022/04/16 05:46:33;;;;;;;4.57;2.00;;;7.70;99.90;;;;;;5009687;28;20318;-65
2022/04/16 05:48:58;;;;;;;2.87;1.97;;;7.80;99.90;;;;;;5008208;28;21504;-66
2022/04/16 05:51:25;;;;;;;5.50;2.30;;;7.90;99.90;;;;;;5006792;28;20642;-66
2022/04/16 05:53:52;;;;;;;4.70;2.53;;;8.00;99.90;;;;;;5005602;28;20191;-66
2022/04/16 05:56:19;;;;;;;3.17;1.60;;;8.10;99.90;;;;;;5009164;28;20471;-66
2022/04/16 05:58:45;;;;;;;4.60;2.27;;;8.20;99.90;;;;;;5008706;28;20426;-66
2022/04/16 06:01:11;;;;;;;3.47;1.80;;;8.20;99.80;;;;;;4990043;28;20441;-64
2022/04/16 06:03:39;;;;;;;2.70;1.90;;;8.20;99.60;;;;;;5005753;28;21106;-67
2022/04/16 06:06:06;;;;;;;2.90;1.60;;;8.20;99.60;;;;;;5008447;28;20476;-66
2022/04/16 06:08:31;;;;;;;3.80;2.00;;;8.30;99.70;;;;;;5006345;28;21265;-65
2022/04/16 06:10:57;;;;;;;5.03;2.20;;;8.30;99.30;;;;;;5010846;28;20422;-66
2022/04/16 06:13:23;;;;;;;3.00;1.73;;;8.30;99.20;;;;;;5006919;28;20183;-66
2022/04/16 06:15:48;;;;;;;5.60;2.33;;;8.40;99.10;;;;;;5005686;28;20261;-64
2022/04/16 06:18:14;;;;;;;2.30;1.50;;;8.40;99.30;;;;;;5007829;28;20191;-65
2022/04/16 06:20:39;;;;;;;4.80;2.43;;;8.40;99.60;;;;;;5004854;28;20318;-66
2022/04/16 06:23:06;;;;;;;3.57;1.90;;;8.50;99.10;;;;;;5010600;28;20187;-67
2022/04/16 06:25:32;;;;;;;3.73;1.90;;;8.50;99.00;;;;;;5012624;28;20207;-67
2022/04/16 06:27:58;;;;;;;5.93;2.53;;;8.60;98.50;;;;;;5002499;28;20450;-66
2022/04/16 06:30:24;;;;;;;4.33;2.10;;;8.60;98.60;;;;;;5004183;28;20460;-67
2022/04/16 06:32:49;;;;;;;4.23;2.30;;;8.60;98.60;;;;;;5005488;28;20195;-66
2022/04/16 06:35:15;;;;;;;6.20;2.10;;;8.50;98.40;;;;;;5013265;28;20207;-65
2022/04/16 06:37:44;;;;;;;3.93;1.90;;;8.70;98.40;;;;;;5006544;28;20662;-66
2022/04/16 06:40:11;;;;;;;3.73;1.73;;;8.70;98.30;;;;;;5003215;28;20209;-65
2022/04/16 06:42:37;;;;;;;4.90;1.50;;;8.70;98.10;;;;;;5007419;28;21521;-65
2022/04/16 06:45:08;;;;;;;6.40;1.80;;;8.80;98.10;;;;;;5007244;28;20961;-64
2022/04/16 06:47:34;;;;;;;6.23;1.87;;;8.70;98.20;;;;;;5006461;28;21955;-66
2022/04/16 06:50:00;;;;;;;2.47;1.40;;;8.90;97.70;;;;;;5008195;28;20525;-66
2022/04/16 06:52:26;;;;;;;4.10;2.50;;;9.00;97.60;;;;;;5005698;28;21013;-64
2022/04/16 06:54:51;;;;;;;3.97;1.87;;;9.00;97.30;;;;;;5009403;28;20305;-65
2022/04/16 06:57:17;;;;;;;4.33;1.80;;;8.90;97.50;;;;;;5007187;28;20186;-64
2022/04/16 06:59:43;;;;;;;4.40;2.10;;;9.00;97.30;;;;;;5007759;28;20191;-64
2022/04/16 07:02:10;;;;;;;3.07;1.60;;;9.00;97.20;;;;;;4988888;28;20283;-63
2022/04/16 07:04:37;;;;;;;5.80;1.53;;;9.10;97.10;;;;;;5006988;28;20448;-65
2022/04/16 07:07:03;;;;;;;11.80;2.37;;;9.00;96.50;;;;;;5013560;28;20548;-66
2022/04/16 07:09:29;;;;;;;3.80;1.80;;;8.90;96.30;;;;;;5005084;28;20471;-66
2022/04/16 07:11:55;;;;;;;4.77;1.97;;;9.00;96.50;;;;;;5006123;28;20513;-63
2022/04/16 07:14:21;;;;;;;2.97;1.50;;;9.00;96.20;;;;;;5005950;28;20191;-65
2022/04/16 07:16:47;;;;;;;3.43;1.70;;;9.10;96.30;;;;;;5003178;28;20215;-65
2022/04/16 07:19:12;;;;;;;2.47;1.70;;;9.10;95.70;;;;;;5004382;28;20999;-65
2022/04/16 07:21:38;;;;;;;10.40;2.13;;;9.10;95.80;;;;;;5005321;28;20209;-65
2022/04/16 07:24:04;;;;;;;4.23;1.90;;;9.20;95.90;;;;;;5004973;28;20195;-64
2022/04/16 07:26:29;;;;;;;2.77;1.63;;;9.20;95.60;;;;;;5006665;28;20314;-65
2022/04/16 07:28:55;;;;;;;5.80;2.70;;;9.30;95.50;;;;;;5007734;28;20519;-66
2022/04/16 07:31:21;;;;;;;4.13;2.03;;;9.30;95.40;;;;;;5000880;28;20589;-66
2022/04/16 07:33:46;;;;;;;3.20;1.70;;;9.30;95.70;;;;;;5004410;28;20714;-64
2022/04/16 07:36:12;;;;;;;5.70;2.17;;;9.40;95.70;;;;;;5006135;28;20210;-63
2022/04/16 07:38:38;;;;;;;3.90;2.10;;;9.40;95.50;;;;;;5009347;28;20283;-65
2022/04/16 07:41:03;;;;;;;4.90;2.43;;;9.40;95.50;;;;;;5004573;28;20306;-66
2022/04/16 07:43:30;;;;;;;4.23;2.23;;;9.40;95.50;;;;;;5005819;28;20244;-65
2022/04/16 07:45:56;;;;;;;4.77;2.57;;;9.40;95.40;;;;;;5005866;28;20250;-66
2022/04/16 07:48:21;;;;;;;5.27;2.30;;;9.50;95.10;;;;;;4991714;28;20429;-65
2022/04/16 07:50:47;;;;;;;3.53;2.07;;;9.60;95.00;;;;;;5005120;28;20442;-65
2022/04/16 07:53:13;;;;;;;3.50;1.90;;;9.40;94.80;;;;;;5003358;28;20190;-65
2022/04/16 07:55:39;;;;;;;4.83;2.07;;;9.40;94.80;;;;;;4987138;28;20218;-65
2022/04/16 07:58:05;;;;;;;6.37;2.47;;;9.50;94.90;;;;;;5005279;28;20199;-63
2022/04/16 08:00:30;;;;;;;6.53;2.90;;;9.50;95.00;;;;;;5006040;28;20276;-63
2022/04/16 08:02:56;;;;;;;7.37;2.50;;;9.60;94.70;;;;;;5005447;28;20191;-66
2022/04/16 08:05:22;;;;;;;2.70;1.50;;;9.50;94.90;;;;;;5005828;28;20219;-66
2022/04/16 08:07:49;;;;;;;5.50;2.50;;;9.50;95.00;;;;;;5010883;28;20183;-65
2022/04/16 08:10:15;;;;;;;6.47;2.50;;;9.70;94.90;;;;;;5006849;28;20179;-64
2022/04/16 08:12:41;;;;;;;4.33;2.30;;;9.80;94.60;;;;;;5008465;28;20487;-67
2022/04/16 08:15:09;;;;;;;4.07;2.30;;;10.10;93.90;;;;;;5010460;28;20237;-66
2022/04/16 08:17:37;;;;;;;5.63;2.33;;;10.20;93.60;;;;;;5005578;28;20476;-65
2022/04/16 08:20:06;;;;;;;5.40;2.90;;;10.40;93.50;;;;;;5005269;28;20421;-67
2022/04/16 08:22:34;;;;;;;6.07;2.87;;;10.40;93.30;;;;;;5004640;28;20913;-65
2022/04/16 08:27:51;;;;;;;6.63;3.20;;;10.10;93.90;;;;;;5010023;28;20495;-66
2022/04/16 08:30:18;;;;;;;7.27;3.00;;;10.20;93.90;;;;;;5002603;28;20461;-64
2022/04/16 08:32:45;;;;;;;7.60;3.13;;;10.20;93.40;;;;;;4990070;28;20812;-62
2022/04/16 08:35:12;;;;;;;6.87;3.00;;;10.20;93.70;;;;;;5016337;28;20457;-64
2022/04/16 08:37:38;;;;;;;7.73;3.23;;;10.20;93.60;;;;;;5006956;28;21770;-65
2022/04/16 08:40:06;;;;;;;4.47;2.57;;;10.40;93.30;;;;;;5013396;28;20437;-66
2022/04/16 08:42:37;;;;;;;6.93;2.43;;;10.30;93.30;;;;;;5004386;28;20203;-65
2022/04/16 08:45:05;;;;;;;5.63;2.83;;;10.30;93.60;;;;;;5005632;28;20969;-64
2022/04/16 08:47:32;;;;;;;5.30;2.57;;;10.50;93.70;;;;;;5004308;28;20481;-65
2022/04/16 08:49:59;;;;;;;4.60;2.47;;;10.60;93.10;;;;;;5001115;28;20937;-64
2022/04/16 08:52:29;;;;;;;7.90;2.97;;;10.60;93.10;;;;;;5001617;28;20426;-65
2022/04/16 08:54:56;;;;;;;6.43;2.57;;;10.30;93.60;;;;;;5005248;28;20442;-64
2022/04/16 08:57:22;;;;;;;5.23;2.80;;;10.50;93.90;;;;;;4999640;28;21007;-66
2022/04/16 08:59:52;;;;;;;4.97;3.10;;;11.00;93.00;;;;;;4990244;28;20426;-66
2022/04/16 09:02:22;;;;;;;5.20;2.83;;;11.50;92.60;;;;;;5014690;28;20183;-66
2022/04/16 09:04:49;;;;;;;4.30;2.03;;;11.50;92.50;;;;;;5023527;28;20532;-65
2022/04/16 09:07:15;;;;;;;9.00;2.57;;;11.60;91.60;;;;;;5020702;28;20461;-65
2022/04/16 09:09:42;;;;;;;9.23;2.80;;;11.60;91.60;;;;;;5020837;28;20432;-66
2022/04/16 09:12:20;;;;;;;6.83;3.00;;;11.60;92.00;;;;;;5025254;28;20813;-66
2022/04/16 09:14:46;;;;;;;6.20;2.57;;;11.50;91.30;;;;;;5013329;28;20873;-63
2022/04/16 09:17:19;;;;;;;13.10;3.67;;;11.40;91.90;;;;;;5016234;28;20420;-64
2022/04/16 09:19:54;;;;;;;5.90;2.47;;;11.70;91.40;;;;;;5009910;28;20771;-65
2022/04/16 09:22:49;;;;;;;3.57;2.20;;;12.00;90.20;;;;;;5013219;28;20432;-66
2022/04/16 09:25:16;;;;;;;6.47;2.40;;;12.10;90.70;;;;;;5006017;28;20458;-66
2022/04/16 09:27:47;;;;;;;7.10;3.17;;;12.30;90.20;;;;;;5008099;28;20469;-64
2022/04/16 09:30:31;;;;;;;5.33;3.10;;;12.40;90.00;;;;;;5007587;28;21160;-66
2022/04/16 09:32:58;;;;;;;7.87;2.50;;;12.20;90.30;;;;;;5008829;28;20414;-68
2022/04/16 09:35:37;;;;;;;8.63;3.20;;;12.40;90.80;;;;;;4999350;28;21220;-66
2022/04/16 09:38:04;;;;;;;4.00;2.20;;;12.50;90.00;;;;;;5010015;28;20430;-68
2022/04/16 09:40:31;;;;;;;8.07;2.60;;;12.70;89.90;;;;;;5016039;28;20420;-66
2022/04/16 09:43:01;;;;;;;5.40;2.87;;;12.70;88.80;;;;;;5016798;28;20580;-66
2022/04/16 09:45:27;;;;;;;5.73;2.40;;;13.00;87.30;;;;;;5013890;28;20790;-66
2022/04/16 09:47:53;;;;;;;3.83;1.67;;;12.40;87.70;;;;;;5007774;28;20426;-64
2022/04/16 09:50:21;;;;;;;5.70;2.70;;;12.30;88.10;;;;;;5007462;28;20437;-65
2022/04/16 09:52:54;;;;;;;6.93;2.60;;;12.00;89.80;;;;;;5010299;28;20179;-66
2022/04/16 09:55:22;;;;;;;3.20;1.87;;;11.90;90.20;;;;;;5007886;28;20537;-67
2022/04/16 09:58:02;;;;;;;4.93;2.77;;;11.90;90.40;;;;;;5007168;28;20487;-66
2022/04/16 10:00:29;;;;;;;6.47;2.53;;;11.90;90.20;;;;;;5013640;28;21027;-66
2022/04/16 10:02:55;;;;;;;3.87;2.20;;;11.70;90.10;;;;;;5007631;28;20426;-66
2022/04/16 10:05:22;;;;;;;4.43;2.20;;;11.30;91.10;;;;;;5009776;28;21063;-66
2022/04/16 10:07:48;;;;;;;5.50;2.00;;;11.40;91.40;;;;;;5014378;28;20532;-65
2022/04/16 10:10:25;;;;;;;5.13;2.40;;;11.60;91.40;;;;;;5009613;28;20418;-65
2022/04/16 10:13:01;;;;;;;5.87;3.37;;;11.80;91.20;;;;;;5006943;28;20426;-65
2022/04/16 10:15:44;;;;;;;6.90;2.83;;;11.40;91.50;;;;;;5007494;28;20453;-65
2022/04/16 10:18:11;;;;;;;7.27;3.57;;;11.30;91.70;;;;;;5007410;28;20988;-67
2022/04/16 10:20:37;;;;;;;8.30;3.23;;;11.30;91.70;;;;;;4989638;28;20430;-66
2022/04/16 10:23:04;;;;;;;6.53;3.40;;;11.10;92.30;;;;;;5009787;28;20468;-64
2022/04/16 10:25:35;;;;;;;5.10;2.93;;;11.10;92.10;;;;;;4993874;28;20292;-64
2022/04/16 10:28:04;;;;;;;7.93;3.37;;;11.20;91.70;;;;;;5005999;28;20882;-64
2022/04/16 10:30:51;;;;;;;8.20;3.77;;;10.90;92.10;;;;;;5003524;28;20457;-65
2022/04/16 10:33:25;;;;;;;6.57;2.77;;;11.00;91.90;;;;;;5008802;28;20429;-66
2022/04/16 10:35:58;;;;;;;5.03;2.30;;;11.10;91.70;;;;;;5006155;28;20454;-65
2022/04/16 10:38:30;;;;;;;6.43;3.90;;;11.20;91.60;;;;;;5006319;28;20530;-64
2022/04/16 10:41:00;;;;;;;4.93;2.83;;;11.20;92.10;;;;;;4984090;28;20990;-65
2022/04/16 10:43:30;;;;;;;6.53;2.60;;;11.40;91.60;;;;;;5003816;28;21027;-65
2022/04/16 10:46:05;;;;;;;8.37;3.10;;;11.60;91.00;;;;;;4984031;28;21149;-65
2022/04/16 10:48:33;;;;;;;5.90;3.40;;;11.80;90.50;;;;;;5002659;28;20523;-66
2022/04/16 10:50:59;;;;;;;8.30;2.90;;;11.90;90.30;;;;;;5001231;28;20441;-65
2022/04/16 10:53:43;;;;;;;6.03;2.87;;;12.00;89.30;;;;;;4988722;28;20977;-65
2022/04/16 10:56:17;;;;;;;4.30;2.30;;;11.90;88.50;;;;;;5002553;28;20840;-68
2022/04/16 10:58:46;;;;;;;5.20;2.33;;;11.90;89.00;;;;;;5005612;28;20546;-67
2022/04/16 11:01:14;;;;;;;4.63;2.30;;;11.80;87.60;;;;;;5003254;28;20515;-67
2022/04/16 11:03:48;;;;;;;5.53;3.00;;;11.70;88.20;;;;;;5006618;28;20449;-66
2022/04/16 11:06:15;;;;;;;4.50;2.60;;;11.60;89.80;;;;;;5006909;28;21053;-67
2022/04/16 11:08:41;;;;;;;6.13;2.03;;;11.40;90.30;;;;;;5006092;28;20495;-68
2022/04/16 11:11:09;;;;;;;5.10;2.50;;;11.60;90.50;;;;;;5009684;28;21054;-67
2022/04/16 11:13:40;;;;;;;5.30;2.77;;;11.60;90.30;;;;;;5012204;28;20418;-65
2022/04/16 11:16:06;;;;;;;7.77;3.47;;;12.00;90.30;;;;;;5003938;28;20437;-66
2022/04/16 11:18:41;;;;;;;4.33;2.30;;;12.30;89.00;;;;;;5006061;28;20961;-66
2022/04/16 11:21:20;;;;;;;5.77;2.30;;;12.10;88.40;;;;;;5010140;28;20799;-66
2022/04/16 11:23:51;;;;;;;4.60;2.30;;;12.20;88.90;;;;;;5012549;28;20964;-66
2022/04/16 11:34:34;;;;;;;5.67;2.83;;;12.30;86.70;;;;;;5008767;28;20473;-65
2022/04/16 11:37:00;;;;;;;6.50;3.40;;;12.30;88.00;;;;;;5003896;28;20444;-67
2022/04/16 11:39:26;;;;;;;10.77;2.60;;;12.50;88.10;;;;;;5005231;28;20418;-67
2022/04/16 11:41:59;;;;;;;5.43;2.80;;;12.90;85.80;;;;;;5005592;28;20222;-66
2022/04/16 11:44:50;;;;;;;5.07;3.03;;;12.60;87.30;;;;;;5000291;28;20444;-66
2022/04/16 11:47:27;;;;;;;5.47;2.77;;;12.70;85.80;;;;;;4999948;28;20852;-66
2022/04/16 11:49:59;;;;;;;7.53;3.30;;;12.90;84.90;;;;;;5004623;28;21158;-66
2022/04/16 11:52:29;;;;;;;7.83;3.30;;;12.40;85.70;;;;;;5005301;28;20426;-66
2022/04/16 11:55:01;;;;;;;6.40;3.60;;;12.60;85.40;;;;;;5003984;28;20453;-65
2022/04/16 11:57:26;;;;;;;5.10;2.70;;;12.40;87.40;;;;;;5006305;28;20444;-65
2022/04/16 11:59:59;;;;;;;7.37;3.60;;;12.40;86.40;;;;;;4998761;28;20426;-67
2022/04/16 12:02:36;;;;;;;5.20;2.60;;;12.40;84.80;;;;;;4998591;28;20192;-66
2022/04/16 12:05:11;;;;;;;4.70;2.23;;;12.30;83.60;;;;;;5000431;28;20566;-66
2022/04/16 12:07:40;;;;;;;5.63;2.83;;;12.50;84.50;;;;;;5013651;28;20509;-65
2022/04/16 12:10:06;;;;;;;9.70;3.00;;;12.70;83.50;;;;;;5003740;28;20418;-64
2022/04/16 12:12:47;;;;;;;6.83;2.90;;;12.50;84.70;;;;;;5004695;28;20428;-66
2022/04/16 12:15:19;;;;;;;6.10;3.30;;;12.60;84.50;;;;;;5009634;28;20206;-65
2022/04/16 12:17:44;;;;;;;4.40;2.63;;;12.30;82.70;;;;;;5005269;28;20760;-65
2022/04/16 12:20:12;;;;;;;6.20;2.33;;;12.10;85.00;;;;;;5004428;28;20437;-65
2022/04/16 12:22:56;;;;;;;4.53;2.50;;;12.40;84.40;;;;;;5004969;28;20179;-68
2022/04/16 12:25:24;;;;;;;3.30;1.80;;;12.80;81.50;;;;;;5012822;28;20541;-68
2022/04/16 12:27:50;;;;;;;4.80;2.83;;;13.00;81.00;;;;;;5005873;28;20461;-67
2022/04/16 12:30:18;;;;;;;5.23;2.70;;;13.20;80.90;;;;;;5005606;28;20432;-67
2022/04/16 12:33:05;;;;;;;3.83;1.60;;;13.30;80.30;;;;;;5005608;28;20445;-64
2022/04/16 12:35:33;;;;;;;4.43;2.53;;;13.30;79.40;;;;;;5011748;28;20450;-66
2022/04/16 12:38:00;;;;;;;4.77;2.57;;;13.10;81.90;;;;;;5021448;28;20944;-67
2022/04/16 12:40:27;;;;;;;3.73;1.73;;;12.70;81.60;;;;;;5009643;28;20422;-67
2022/04/16 12:42:56;;;;;;;4.87;2.33;;;12.70;81.20;;;;;;5008889;28;21011;-67
2022/04/16 12:45:23;;;;;;;6.03;2.53;;;12.80;82.50;;;;;;5008601;28;20461;-67
2022/04/16 12:47:49;;;;;;;7.10;2.30;;;13.20;80.30;;;;;;5009345;28;20528;-67
2022/04/16 12:50:16;;;;;;;6.53;2.43;;;13.60;80.40;;;;;;5008968;28;20478;-66
2022/04/16 12:52:43;;;;;;;5.77;2.37;;;13.80;80.00;;;;;;5008945;28;20504;-67
2022/04/16 12:55:10;;;;;;;6.57;2.10;;;14.50;79.20;;;;;;5019122;28;20457;-67
2022/04/16 12:57:36;;;;;;;6.20;2.47;;;14.60;76.00;;;;;;5013209;28;20451;-67
2022/04/16 13:00:05;;;;;;;6.07;2.40;;;14.40;76.00;;;;;;5008799;28;20925;-67
2022/04/16 13:02:31;;;;;;;4.40;2.27;;;14.60;75.60;;;;;;5018264;28;20198;-68
2022/04/16 13:04:57;;;;;;;5.40;2.60;;;14.30;75.80;;;;;;5017160;28;20603;-67
2022/04/16 13:07:22;;;;;;;4.77;2.60;;;13.90;77.00;;;;;;5008586;28;20939;-67
2022/04/16 13:09:48;;;;;;;7.40;2.70;;;13.10;76.60;;;;;;5008660;28;20563;-66
2022/04/16 13:12:16;;;;;;;5.30;2.27;;;13.20;76.50;;;;;;5011663;28;20201;-67
2022/04/16 13:14:44;;;;;;;7.87;3.03;;;13.30;76.60;;;;;;5016022;28;20448;-66
2022/04/16 13:17:10;;;;;;;4.80;2.10;;;13.40;73.90;;;;;;5008179;28;20438;-67